Charlottesville Albemarle Airport
KCHO : rendu visible

Aérodrome :











RETROUVEZ-NOUS SUR...

 
LOGIN :

S'inscrire | Disclaimer

   EN    FR    IT 

 









Légende :    VFR   VFR Marginal   IFR   IFR Intensif   IFR Très Intensif
Visi : 
Plafond : 
>= 8 km
>= 3000ft
5 à 8 km
1000 à 3000 ft
1500m à 5 km
500 à 1000 ft
800 à 1500m
200 à 500 ft
< 800m
< 200 ft
Symboles :   Orages  Brouillard  Fortes neiges  Fortes précipitations  Vent > 20 kt






- Altitude de l'aérodrome : 639 ft
- Code IATA : CHO


KCHO - Charlottesville Albemarle

DERNIER METAR :
  • 181053Z 32006KT 10SM CLR 10/M01 A2997 RMK AO2 SLP145 T01001006

METARs EXPIRÉS :
  • 180953Z 34004KT 10SM CLR 10/M01 A2995 RMK AO2 SLP138 T01001006
  • 180853Z AUTO 31003KT 10SM CLR 09/00 A2992 RMK AO2 SLP129 T00940000 53010

TAF KCHO
Valide du 18 à 06h jusqu'au 19 à 06h UTC


180520Z 1806/1906 33008KT P6SM FEW050
FM181300 32008G16KT P6SM FEW050
FM181800 33005KT P6SM SKC
FM182300 VRB03KT P6SM SKC



MET'MAP, la Météo Aéronautique d'un coup d'oeil ! - Copyright ORBIFLY Décembre 2007 - Disclaimer

ORBIFLY MET'MAP TEAM :

Programmation & Développement : Alexandra Zaïnal
Conception & Développement : Baudouin d'Aumeries
Co-Programmation & Développement : Marc-Olivier Méhu
Soutien technique & logistique : Manuel Goepfert

Contact : metmap@orbifly.com




SOURCES & CREDITS :

   NOAA       Earth
Advisory